Time;durP1;ratioP1;P1;durP2;ratioP2;P2;SDS_P1;SDS_P2;PMS_P1;PMS_P2;Temp;Humidity;BMP_temperature;BMP_pressure;BME280_temperature;BME280_humidity;BME280_pressure;Samples;Min_cycle;Max_cycle;Signal;HPM_P1;HPM_P2
2022/08/10 00:00:21;;;;;;;5.60;1.90;;;;;;;28.19;47.60;101529.61;1687269;84;21133;-49
2022/08/10 00:02:54;;;;;;;10.68;2.55;;;;;;;28.14;47.23;101523.30;1642884;86;21059;-50
2022/08/10 00:05:21;;;;;;;18.48;3.05;;;;;;;28.10;47.24;101527.20;1589628;88;21127;-50
2022/08/10 00:07:49;;;;;;;3.42;2.08;;;;;;;28.09;47.04;101525.97;1570878;89;21611;-53
2022/08/10 00:10:17;;;;;;;6.00;1.60;;;;;;;27.99;47.22;101523.69;1593402;88;21062;-50
2022/08/10 00:12:46;;;;;;;8.05;2.00;;;;;;;27.97;47.13;101521.16;1633410;87;21012;-53
2022/08/10 00:15:17;;;;;;;17.05;2.80;;;;;;;27.94;46.69;101515.18;1653547;86;21114;-50
2022/08/10 00:17:43;;;;;;;;;;;;;;;27.92;46.54;101519.33;1687595;84;21017;-51
2022/08/10 00:20:11;;;;;;;2.17;1.85;;;;;;;27.93;46.64;101518.81;1689384;83;20923;-49
2022/08/10 00:22:38;;;;;;;8.05;1.80;;;;;;;27.96;46.77;101515.94;1680657;83;21591;-51
2022/08/10 00:25:06;;;;;;;17.35;2.75;;;;;;;27.94;46.81;101515.18;1694410;84;21053;-51
2022/08/10 00:27:33;;;;;;;7.50;2.10;;;;;;;27.95;47.01;101518.20;1689579;83;20981;-54
2022/08/10 00:29:59;;;;;;;2.90;1.50;;;;;;;27.93;46.86;101516.14;1689584;83;20993;-50
2022/08/10 00:32:26;;;;;;;7.90;2.33;;;;;;;27.86;46.79;101516.30;1687703;83;21577;-50
2022/08/10 00:34:53;;;;;;;4.83;1.90;;;;;;;27.84;46.80;101511.56;1674935;83;21025;-51
2022/08/10 00:37:20;;;;;;;3.25;1.55;;;;;;;27.79;46.57;101511.08;1688304;84;21064;-53
2022/08/10 00:39:46;;;;;;;4.10;2.17;;;;;;;27.80;46.65;101516.80;1689372;83;20997;-53
2022/08/10 00:42:14;;;;;;;1.60;1.40;;;;;;;27.71;46.75;101513.53;1682297;83;21080;-52
2022/08/10 00:44:45;;;;;;;5.78;1.60;;;;;;;27.67;46.85;101512.08;1686205;83;21073;-52
2022/08/10 00:47:12;;;;;;;2.13;1.47;;;;;;;27.65;46.83;101508.68;1687085;83;20993;-50
2022/08/10 00:49:39;;;;;;;3.30;1.55;;;;;;;27.63;47.00;101507.95;1687941;83;21069;-50
2022/08/10 00:52:07;;;;;;;2.62;1.50;;;;;;;27.60;46.91;101519.74;1689392;83;21486;-52
2022/08/10 00:54:35;;;;;;;4.47;1.42;;;;;;;27.67;46.80;101516.09;1677747;84;21048;-50
2022/08/10 00:57:05;;;;;;;3.98;1.57;;;;;;;27.60;47.14;101509.52;1673800;83;21068;-52
2022/08/10 00:59:33;;;;;;;2.90;1.70;;;;;;;27.55;46.81;101508.59;1687709;83;21568;-52
2022/08/10 01:01:59;;;;;;;5.47;2.27;;;;;;;27.52;46.88;101510.63;1717183;82;21038;-51
2022/08/10 01:04:26;;;;;;;6.85;1.70;;;;;;;27.48;46.66;101511.86;1734487;81;21519;-49
2022/08/10 01:07:14;;;;;;;4.65;1.70;;;;;;;27.42;47.20;101515.02;1700780;84;21019;-50
2022/08/10 01:09:52;;;;;;;5.25;1.95;;;;;;;27.36;47.11;101518.56;1736675;81;21031;-49
2022/08/10 01:12:42;;;;;;;2.95;1.92;;;;;;;27.35;47.05;101515.52;1693104;84;21037;-50
2022/08/10 01:15:24;;;;;;;2.17;1.60;;;;;;;27.35;47.04;101514.66;1722348;82;21055;-52
2022/08/10 01:18:14;;;;;;;5.12;1.60;;;;;;;27.33;47.34;101513.41;1713170;84;21022;-50
2022/08/10 01:21:09;;;;;;;5.37;1.85;;;;;;;27.32;47.29;101519.75;1711179;84;21107;-49
2022/08/10 01:24:13;;;;;;;3.92;1.60;;;;;;;27.29;47.34;101507.95;1711483;83;21059;-54
2022/08/10 01:26:57;;;;;;;44.58;3.60;;;;;;;27.27;47.19;101507.22;1702180;82;21047;-49
2022/08/10 01:29:50;;;;;;;4.00;1.70;;;;;;;27.23;47.02;101507.11;1712672;84;21542;-51
2022/08/10 01:32:25;;;;;;;7.60;2.20;;;;;;;27.22;47.40;101500.05;1713485;82;21583;-51
2022/08/10 01:35:02;;;;;;;2.08;1.87;;;;;;;27.20;46.94;101492.64;1709743;82;21023;-52
2022/08/10 01:37:32;;;;;;;5.75;2.22;;;;;;;27.19;47.27;101497.63;1717576;82;21023;-50
2022/08/10 01:39:59;;;;;;;4.22;1.85;;;;;;;27.17;47.06;101506.26;1713557;82;21034;-53
2022/08/10 01:42:27;;;;;;;3.70;1.80;;;;;;;27.12;47.21;101492.40;1713184;82;21069;-54
2022/08/10 01:45:00;;;;;;;21.68;3.72;;;;;;;27.10;47.66;101507.70;1713042;82;21019;-51
2022/08/10 01:50:29;;;;;;;5.15;1.80;;;;;;;27.09;47.59;101491.80;1708738;82;21555;-52
2022/08/10 01:53:01;;;;;;;1.75;1.62;;;;;;;27.08;47.59;101487.45;1651302;87;21050;-50
2022/08/10 01:55:28;;;;;;;2.20;1.92;;;;;;;27.09;47.83;101487.31;1656068;85;21034;-51
2022/08/10 01:57:55;;;;;;;9.15;2.60;;;;;;;27.11;47.65;101494.72;1655971;85;21150;-49
2022/08/10 02:00:23;;;;;;;8.03;2.27;;;;;;;27.04;47.41;101493.49;1634148;86;21570;-55
2022/08/10 02:02:50;;;;;;;3.60;1.98;;;;;;;26.97;47.61;101490.95;1655999;85;21089;-54
2022/08/10 02:05:17;;;;;;;4.33;2.02;;;;;;;26.93;47.62;101485.97;1656070;85;21065;-50
2022/08/10 02:07:43;;;;;;;1.90;1.80;;;;;;;26.95;47.48;101490.70;1656043;85;21047;-52
2022/08/10 02:10:12;;;;;;;6.30;2.12;;;;;;;26.91;47.58;101482.57;1656020;87;21094;-50
2022/08/10 02:12:40;;;;;;;3.92;2.20;;;;;;;26.87;48.11;101485.11;1653522;86;21078;-51
2022/08/10 02:15:16;;;;;;;14.80;2.45;;;;;;;26.86;48.21;101493.61;1673743;85;21090;-51
2022/08/10 02:17:51;;;;;;;4.50;2.00;;;;;;;26.85;48.11;101484.38;1616668;87;21078;-55
2022/08/10 02:20:20;;;;;;;29.25;4.30;;;;;;;26.85;48.01;101487.91;1615736;87;21074;-49
2022/08/10 02:22:51;;;;;;;3.90;2.22;;;;;;;26.84;47.42;101492.02;1614428;87;21066;-49
2022/08/10 02:25:19;;;;;;;4.15;2.30;;;;;;;26.82;47.13;101488.14;1614242;86;21026;-51
2022/08/10 02:27:46;;;;;;;9.05;2.05;;;;;;;26.80;47.64;101489.22;1605511;88;21109;-57
2022/08/10 02:30:13;;;;;;;2.10;1.77;;;;;;;26.86;47.35;101494.94;1649793;84;21102;-53
2022/08/10 02:32:40;;;;;;;4.35;2.00;;;;;;;26.86;47.83;101496.27;1700103;83;21058;-50
2022/08/10 02:35:10;;;;;;;1.80;1.70;;;;;;;26.86;47.54;101493.61;1695707;83;21038;-49
2022/08/10 02:37:39;;;;;;;6.17;2.30;;;;;;;26.86;47.62;101497.61;1694608;83;21086;-51
2022/08/10 02:40:08;;;;;;;4.47;2.30;;;;;;;26.85;47.18;101488.39;1694590;83;21590;-50
2022/08/10 02:42:50;;;;;;;5.03;1.98;;;;;;;26.76;47.42;101494.44;1694594;83;21578;-50
2022/08/10 02:45:37;;;;;;;2.22;1.82;;;;;;;26.70;47.29;101486.87;1706185;83;21003;-50
2022/08/10 02:48:17;;;;;;;3.22;1.92;;;;;;;26.68;47.62;101484.33;1669921;86;21086;-51
2022/08/10 02:50:49;;;;;;;5.83;2.33;;;;;;;26.66;47.67;101495.61;1632233;87;21019;-51
2022/08/10 02:53:36;;;;;;;2.62;2.15;;;;;;;26.63;47.76;101491.82;1631880;87;21091;-53
2022/08/10 02:56:09;;;;;;;3.98;2.20;;;;;;;26.60;47.27;101495.57;1579519;91;21103;-52
2022/08/10 02:58:43;;;;;;;4.00;2.50;;;;;;;26.57;47.84;101489.62;1548697;93;21102;-50
2022/08/10 03:01:16;;;;;;;2.98;2.30;;;;;;;26.54;48.01;101497.89;1548645;93;21051;-51
2022/08/10 03:03:47;;;;;;;3.05;1.80;;;;;;;26.51;47.79;101495.44;1548810;93;21127;-52
2022/08/10 03:06:18;;;;;;;2.58;2.10;;;;;;;26.49;47.83;101490.70;1541590;93;21600;-50
2022/08/10 03:08:45;;;;;;;2.40;2.17;;;;;;;26.47;48.30;101494.83;1529499;93;21088;-50
2022/08/10 03:11:17;;;;;;;4.40;2.15;;;;;;;26.46;48.44;101489.62;1548675;93;21409;-49
2022/08/10 03:13:44;;;;;;;2.27;2.05;;;;;;;26.47;48.88;101488.63;1546243;93;21674;-51
2022/08/10 03:16:10;;;;;;;7.80;1.95;;;;;;;26.47;48.91;101487.30;1546082;93;21030;-49
2022/08/10 03:18:37;;;;;;;4.05;2.72;;;;;;;26.46;48.83;101484.28;1546432;93;21110;-51
2022/08/10 03:21:04;;;;;;;2.65;2.12;;;;;;;26.46;49.13;101485.11;1544092;93;21065;-53
2022/08/10 03:23:32;;;;;;;2.95;2.30;;;;;;;26.47;48.92;101492.64;1569432;90;21088;-50
2022/08/10 03:25:58;;;;;;;8.03;2.62;;;;;;;26.48;48.92;101493.02;1563831;90;21163;-50
2022/08/10 03:28:29;;;;;;;3.72;2.20;;;;;;;26.49;48.83;101494.70;1558609;89;21097;-49
2022/08/10 03:30:57;;;;;;;;;;;;;;;26.50;48.37;101493.75;1622184;87;21088;-50
2022/08/10 03:33:28;;;;;;;3.30;2.50;;;;;;;26.50;48.10;101483.08;1698320;81;20097;-54
2022/08/10 03:35:54;;;;;;;2.45;2.20;;;;;;;26.47;48.59;101487.30;1699764;83;21014;-49
2022/08/10 03:38:21;;;;;;;3.45;2.10;;;;;;;26.46;48.58;101489.11;1700112;84;21010;-49
2022/08/10 03:40:48;;;;;;;3.27;1.98;;;;;;;26.47;48.63;101473.48;1700781;84;21031;-52
2022/08/10 03:43:19;;;;;;;2.20;2.00;;;;;;;26.47;48.97;101467.28;1700235;84;21074;-50
2022/08/10 03:45:50;;;;;;;13.62;3.27;;;;;;;26.48;48.53;101466.33;1689955;84;21061;-49
2022/08/10 03:48:17;;;;;;;6.53;2.37;;;;;;;26.47;48.76;101472.62;1692737;84;21511;-52
2022/08/10 03:50:45;;;;;;;3.80;2.27;;;;;;;26.46;49.01;101470.42;1727545;81;20995;-49
2022/08/10 03:53:12;;;;;;;2.37;2.17;;;;;;;26.49;48.89;101470.69;1733447;81;21026;-52
2022/08/10 03:55:39;;;;;;;2.20;2.00;;;;;;;26.51;49.14;101466.08;1704960;84;21080;-50
2022/08/10 03:58:06;;;;;;;2.70;2.20;;;;;;;26.52;49.02;101470.47;1723407;81;21050;-49
2022/08/10 04:00:33;;;;;;;2.98;2.27;;;;;;;26.54;48.93;101463.19;1730461;81;21508;-51
2022/08/10 04:03:04;;;;;;;4.78;1.92;;;;;;;26.57;49.27;101450.92;1733373;81;21073;-50
2022/08/10 04:05:31;;;;;;;;;;;;;;;26.59;49.09;101459.66;1739196;81;21068;-49
2022/08/10 04:07:59;;;;;;;4.95;2.62;;;;;;;26.63;49.18;101458.45;1736705;81;20109;-53
2022/08/10 04:10:26;;;;;;;11.05;2.33;;;;;;;26.63;49.03;101460.65;1737768;82;21044;-49
2022/08/10 04:12:53;;;;;;;3.45;2.52;;;;;;;26.64;48.94;101456.17;1738441;81;21512;-50
2022/08/10 04:15:23;;;;;;;5.83;2.60;;;;;;;26.67;49.36;101455.09;1738294;81;21091;-50
2022/08/10 04:17:49;;;;;;;2.20;2.10;;;;;;;26.71;49.19;101465.38;1736834;81;21072;-53
2022/08/10 04:20:23;;;;;;;2.60;2.40;;;;;;;26.74;49.26;101457.18;1735255;82;21044;-53
2022/08/10 04:22:52;;;;;;;3.27;2.67;;;;;;;26.78;49.33;101458.64;1674850;84;21130;-50
2022/08/10 04:25:20;;;;;;;7.70;2.70;;;;;;;26.82;48.77;101457.43;1676362;84;21070;-50
2022/08/10 04:27:47;;;;;;;3.67;2.12;;;;;;;26.84;48.96;101452.81;1671643;85;21519;-55
2022/08/10 04:30:13;;;;;;;3.02;2.72;;;;;;;26.85;49.25;101461.20;1677758;84;21534;-50
2022/08/10 04:32:41;;;;;;;4.60;2.80;;;;;;;26.89;48.93;101459.14;1676368;85;21082;-49
2022/08/10 04:35:09;;;;;;;5.65;2.33;;;;;;;26.90;48.99;101456.81;1676523;84;21106;-51
2022/08/10 04:37:37;;;;;;;3.67;2.47;;;;;;;26.89;48.91;101455.98;1676949;84;21022;-50
2022/08/10 04:40:05;;;;;;;2.15;2.05;;;;;;;26.89;49.06;101451.98;1648738;86;21570;-51
2022/08/10 04:42:32;;;;;;;2.58;2.30;;;;;;;26.91;49.24;101447.84;1679443;84;21132;-51
2022/08/10 04:44:59;;;;;;;2.77;2.30;;;;;;;26.91;49.07;101458.05;1662870;84;21139;-51
2022/08/10 04:47:26;;;;;;;3.17;2.40;;;;;;;26.92;48.93;101458.41;1646281;85;21011;-50
2022/08/10 04:49:53;;;;;;;2.67;2.33;;;;;;;26.93;48.85;101454.78;1646182;85;21622;-50
2022/08/10 04:52:19;;;;;;;5.20;2.62;;;;;;;26.93;49.06;101450.77;1646271;85;21103;-56
2022/08/10 04:54:46;;;;;;;2.58;2.37;;;;;;;26.94;48.99;101446.25;1646178;85;21051;-55
2022/08/10 04:57:13;;;;;;;4.05;2.65;;;;;;;26.94;48.86;101453.79;1647537;85;21063;-51
2022/08/10 04:59:39;;;;;;;3.47;2.00;;;;;;;26.93;48.73;101454.78;1646091;85;21067;-54
2022/08/10 05:02:06;;;;;;;5.83;3.22;;;;;;;26.93;48.94;101452.11;1662563;85;21086;-50
2022/08/10 05:04:33;;;;;;;2.52;2.33;;;;;;;26.95;48.77;101451.98;1662464;85;21535;-51
2022/08/10 05:07:00;;;;;;;2.80;2.60;;;;;;;26.94;48.70;101447.11;1668167;85;21054;-50
2022/08/10 05:09:27;;;;;;;2.35;2.25;;;;;;;26.96;48.80;101457.19;1666120;85;21070;-51
2022/08/10 05:11:53;;;;;;;2.52;2.33;;;;;;;26.97;48.83;101458.91;1664317;85;21039;-50
2022/08/10 05:14:20;;;;;;;8.50;2.77;;;;;;;26.98;48.56;101456.58;1663156;85;21567;-50
2022/08/10 05:16:47;;;;;;;2.80;2.30;;;;;;;26.98;48.48;101452.58;1664229;85;21050;-53
2022/08/10 05:19:13;;;;;;;2.58;2.37;;;;;;;26.97;48.49;101456.71;1690362;81;21038;-49
2022/08/10 05:21:40;;;;;;;4.97;2.27;;;;;;;26.96;48.73;101450.98;1735059;81;20999;-54
2022/08/10 05:24:07;;;;;;;4.78;2.85;;;;;;;26.94;48.61;101448.45;1736613;81;21076;-52
2022/08/10 05:26:34;;;;;;;2.87;2.22;;;;;;;26.97;48.81;101451.38;1701099;84;21078;-51
2022/08/10 05:29:01;;;;;;;3.83;2.67;;;;;;;26.98;49.19;101452.58;1704579;84;21058;-49
2022/08/10 05:31:27;;;;;;;3.05;2.75;;;;;;;27.02;48.93;101448.69;1699695;84;21014;-52
2022/08/10 05:33:54;;;;;;;3.55;2.40;;;;;;;27.05;48.67;101456.47;1700767;84;21073;-52
2022/08/10 05:36:21;;;;;;;2.50;2.30;;;;;;;27.07;48.61;101457.20;1726182;82;21059;-50
2022/08/10 05:38:48;;;;;;;3.05;2.60;;;;;;;27.08;48.81;101453.54;1736030;81;21023;-51
2022/08/10 05:41:15;;;;;;;4.03;2.50;;;;;;;27.11;48.88;101466.67;1733153;81;21059;-50
2022/08/10 05:43:43;;;;;;;2.95;2.65;;;;;;;27.14;48.80;101462.40;1733688;81;21451;-52
2022/08/10 05:46:09;;;;;;;2.10;1.90;;;;;;;27.16;48.64;101471.14;1733619;81;21038;-56
2022/08/10 05:48:36;;;;;;;3.42;2.52;;;;;;;27.18;48.68;101462.52;1733471;81;21042;-50
2022/08/10 05:51:03;;;;;;;5.40;2.67;;;;;;;27.21;48.37;101458.28;1734056;81;21030;-51
2022/08/10 05:53:32;;;;;;;2.45;2.25;;;;;;;27.24;48.29;101449.17;1701111;84;21018;-52
2022/08/10 05:55:59;;;;;;;5.55;2.77;;;;;;;27.25;48.04;101458.40;1701241;84;21511;-49
2022/08/10 05:58:26;;;;;;;3.15;2.50;;;;;;;27.28;48.11;101449.30;1699277;84;21141;-54
2022/08/10 06:00:53;;;;;;;2.80;2.58;;;;;;;27.30;48.04;101447.34;1699637;84;21040;-53
2022/08/10 06:03:33;;;;;;;2.85;2.40;;;;;;;27.34;48.15;101443.00;1735529;82;21031;-50
2022/08/10 06:06:00;;;;;;;3.10;2.65;;;;;;;27.38;47.86;101444.45;1700377;84;20978;-51
2022/08/10 06:08:30;;;;;;;4.17;2.15;;;;;;;27.49;47.55;101447.59;1736515;81;21519;-50
2022/08/10 06:11:04;;;;;;;2.27;2.08;;;;;;;27.60;47.43;101444.88;1700905;84;21011;-50
2022/08/10 06:16:20;;;;;;;2.52;2.33;;;;;;;27.79;46.89;101445.55;1698963;84;21058;-57
2022/08/10 06:18:47;;;;;;;3.83;2.25;;;;;;;27.92;47.38;101444.91;1717026;81;21105;-53
2022/08/10 06:21:15;;;;;;;4.60;2.72;;;;;;;28.01;46.85;101454.37;1723354;81;21112;-52
2022/08/10 06:23:41;;;;;;;5.55;2.47;;;;;;;28.10;46.50;101447.41;1722911;82;21041;-50
2022/08/10 06:26:08;;;;;;;3.90;2.40;;;;;;;28.13;46.39;101450.66;1729313;81;21486;-52
2022/08/10 06:28:38;;;;;;;2.98;2.60;;;;;;;28.16;46.50;101446.89;1711407;82;21039;-49
2022/08/10 06:31:06;;;;;;;7.53;3.20;;;;;;;28.17;46.08;101461.98;1725752;81;21039;-49
2022/08/10 06:33:35;;;;;;;4.20;3.00;;;;;;;28.16;46.25;101448.23;1725859;81;21590;-53
2022/08/10 06:36:03;;;;;;;4.05;2.47;;;;;;;28.16;46.28;101451.77;1724094;81;21618;-51
2022/08/10 06:38:32;;;;;;;4.58;3.12;;;;;;;28.17;46.25;101456.12;1722865;81;21027;-52
2022/08/10 06:41:03;;;;;;;7.87;4.15;;;;;;;28.19;46.37;101456.02;1722951;81;21074;-52
2022/08/10 06:43:30;;;;;;;;;;;;;;;28.20;46.13;101457.70;1725538;81;21070;-54
2022/08/10 06:46:10;;;;;;;7.20;4.95;;;;;;;28.22;46.19;101458.89;1722790;81;20134;-50
2022/08/10 06:48:40;;;;;;;47.00;19.42;;;;;;;28.22;46.12;101449.05;1719289;81;21019;-52
2022/08/10 06:51:13;;;;;;;14.58;9.65;;;;;;;28.21;46.04;101462.09;1579758;89;21160;-52
2022/08/10 06:53:46;;;;;;;5.35;4.80;;;;;;;28.26;46.14;101458.99;1568180;89;21631;-52
2022/08/10 06:56:17;;;;;;;4.67;3.92;;;;;;;28.26;45.97;101454.50;1577466;89;21083;-51
2022/08/10 06:58:51;;;;;;;5.85;3.70;;;;;;;28.26;45.81;101453.16;1523025;93;21123;-49
2022/08/10 07:01:25;;;;;;;8.33;3.50;;;;;;;28.25;45.85;101452.81;1524504;93;21616;-51
2022/08/10 07:04:03;;;;;;;7.40;2.85;;;;;;;28.25;46.26;101447.47;1507461;93;21047;-50
2022/08/10 07:06:30;;;;;;;4.72;3.02;;;;;;;28.27;46.45;101442.83;1403656;102;21395;-52
2022/08/10 07:08:56;;;;;;;2.77;2.55;;;;;;;28.32;46.12;101444.61;1403793;102;21166;-50
2022/08/10 07:11:23;;;;;;;3.45;2.70;;;;;;;28.35;46.06;101444.36;1403704;102;21087;-54
2022/08/10 07:13:50;;;;;;;2.70;2.47;;;;;;;28.40;46.12;101440.79;1387190;102;21165;-53
2022/08/10 07:16:17;;;;;;;4.05;2.52;;;;;;;28.48;46.21;101437.47;1382156;102;21153;-52
2022/08/10 07:18:44;;;;;;;5.40;2.90;;;;;;;28.55;45.69;101426.58;1374019;104;21196;-52
2022/08/10 07:21:11;;;;;;;3.27;2.70;;;;;;;28.59;45.79;101435.59;1389778;102;21126;-53
2022/08/10 07:23:39;;;;;;;6.87;2.87;;;;;;;28.64;45.58;101429.84;1385821;102;21167;-52
2022/08/10 07:26:05;;;;;;;4.80;2.95;;;;;;;28.65;45.32;101431.53;1382172;102;21173;-51
2022/08/10 07:28:32;;;;;;;4.28;2.70;;;;;;;28.66;45.29;101424.72;1365797;104;21161;-51
2022/08/10 07:30:59;;;;;;;6.67;2.80;;;;;;;28.69;45.58;101427.59;1373414;102;21182;-55
2022/08/10 07:33:26;;;;;;;3.92;3.15;;;;;;;28.73;45.43;101420.99;1386150;102;21165;-57
2022/08/10 07:35:53;;;;;;;6.15;2.83;;;;;;;28.78;45.31;101423.65;1386250;102;21141;-51
2022/08/10 07:38:25;;;;;;;5.17;3.05;;;;;;;28.85;45.01;101419.95;1382697;102;21153;-54
2022/08/10 07:40:52;;;;;;;5.80;2.58;;;;;;;28.90;45.20;101414.53;1388740;102;21122;-51
2022/08/10 07:43:24;;;;;;;3.22;2.83;;;;;;;28.97;45.27;101419.69;1388846;101;21209;-52
2022/08/10 07:45:50;;;;;;;9.08;3.08;;;;;;;29.02;45.08;101413.11;1415927;99;21098;-50
2022/08/10 07:48:29;;;;;;;6.00;3.12;;;;;;;29.04;44.94;101415.16;1459951;95;21672;-51
2022/08/10 07:50:59;;;;;;;5.65;3.00;;;;;;;29.04;44.70;101408.46;1486483;94;21122;-49
2022/08/10 07:53:38;;;;;;;3.98;2.90;;;;;;;29.04;44.46;101411.96;1482537;95;21102;-50
2022/08/10 07:56:06;;;;;;;3.77;2.98;;;;;;;29.07;44.65;101417.06;1465874;95;21068;-50
2022/08/10 07:58:45;;;;;;;4.15;3.10;;;;;;;29.10;44.88;101409.25;1467499;96;21616;-51
2022/08/10 08:01:13;;;;;;;3.10;2.90;;;;;;;29.17;44.34;101407.73;1488785;94;21596;-52
2022/08/10 08:03:40;;;;;;;3.10;2.83;;;;;;;29.24;44.50;101407.56;1686408;80;20988;-53
2022/08/10 08:06:07;;;;;;;4.60;3.02;;;;;;;29.32;44.38;101406.37;1748293;80;21049;-55
2022/08/10 08:08:33;;;;;;;5.65;2.70;;;;;;;29.45;44.48;101405.64;1740381;80;21019;-52
2022/08/10 08:11:01;;;;;;;5.55;3.08;;;;;;;29.55;44.70;101403.81;1740327;81;21018;-54
2022/08/10 08:13:29;;;;;;;6.30;3.12;;;;;;;29.67;44.18;101397.33;1742917;81;20976;-51
2022/08/10 08:15:57;;;;;;;9.05;3.20;;;;;;;29.78;44.42;101399.88;1731156;80;21007;-52
2022/08/10 08:18:23;;;;;;;3.72;3.25;;;;;;;29.88;44.09;101395.39;1745301;80;21001;-53
2022/08/10 08:20:50;;;;;;;4.37;2.25;;;;;;;29.97;44.25;101390.50;1704228;84;21038;-52
2022/08/10 08:23:17;;;;;;;3.37;3.08;;;;;;;30.05;44.00;101394.66;1685731;84;21534;-51
2022/08/10 08:25:44;;;;;;;7.00;2.90;;;;;;;30.12;43.96;101387.73;1706172;84;21518;-50
2022/08/10 08:28:11;;;;;;;6.05;3.15;;;;;;;30.16;43.66;101386.45;1749839;81;21046;-56
2022/08/10 08:30:39;;;;;;;4.37;2.85;;;;;;;30.20;43.73;101386.52;1741622;80;21027;-53
2022/08/10 08:33:07;;;;;;;4.45;3.20;;;;;;;30.26;43.76;101377.88;1745651;80;21035;-49
2022/08/10 08:35:33;;;;;;;9.15;3.45;;;;;;;30.34;43.64;101378.52;1731868;80;21058;-52
2022/08/10 08:38:00;;;;;;;3.77;3.02;;;;;;;30.44;43.72;101377.51;1733850;80;21086;-51
2022/08/10 08:40:35;;;;;;;3.72;3.27;;;;;;;30.57;43.31;101379.02;1731911;81;21047;-51
2022/08/10 08:43:39;;;;;;;4.15;3.02;;;;;;;30.67;42.80;101378.48;1682603;84;21577;-52
2022/08/10 08:46:33;;;;;;;6.33;2.85;;;;;;;30.76;42.87;101373.58;1689720;84;21015;-52
2022/08/10 08:49:34;;;;;;;6.35;3.40;;;;;;;30.86;43.32;101371.23;1680256;84;21134;-49
2022/08/10 08:52:27;;;;;;;5.87;3.37;;;;;;;30.96;43.25;101364.45;1684976;84;21098;-49
2022/08/10 08:55:29;;;;;;;6.42;3.15;;;;;;;31.06;42.92;101370.62;1685304;84;21048;-50
2022/08/10 08:58:42;;;;;;;7.08;3.37;;;;;;;31.16;42.62;101366.06;1680322;85;21050;-50
2022/08/10 09:01:54;;;;;;;5.78;3.17;;;;;;;31.25;42.67;101365.99;1683178;85;21047;-51
2022/08/10 09:04:45;;;;;;;;;;;;;;;31.38;42.31;101365.63;1675815;84;21078;-53
2022/08/10 09:07:23;;;;;;;7.83;3.10;;;;;;;31.47;42.36;101359.34;1689059;84;20128;-51
2022/08/10 09:10:03;;;;;;;5.72;3.92;;;;;;;31.53;41.66;101348.48;1690839;84;21070;-52
2022/08/10 09:13:07;;;;;;;5.40;3.40;;;;;;;31.59;41.30;101353.25;1639798;86;21056;-50
2022/08/10 09:15:50;;;;;;;6.42;3.62;;;;;;;31.65;41.95;101349.45;1642823;86;21141;-51
2022/08/10 09:18:45;;;;;;;4.65;3.37;;;;;;;31.74;42.08;101347.65;1647810;85;21567;-50
2022/08/10 09:21:29;;;;;;;6.22;3.25;;;;;;;31.79;41.24;101346.20;1617151;88;21148;-50
2022/08/10 09:24:16;;;;;;;5.72;3.60;;;;;;;31.85;41.22;101344.23;1585382;89;21157;-50
2022/08/10 09:26:51;;;;;;;3.65;3.22;;;;;;;31.90;41.16;101340.55;1585313;90;21093;-52
2022/08/10 09:29:30;;;;;;;7.33;3.75;;;;;;;31.96;41.31;101335.92;1584250;89;21184;-53
2022/08/10 09:32:08;;;;;;;7.22;3.17;;;;;;;32.04;41.23;101331.97;1542313;92;21054;-52
2022/08/10 09:35:04;;;;;;;9.55;3.50;;;;;;;32.11;41.01;101329.98;1503206;95;21079;-49
2022/08/10 09:37:44;;;;;;;4.40;3.37;;;;;;;32.17;40.14;101330.70;1497740;95;21118;-50
2022/08/10 09:40:37;;;;;;;7.28;3.17;;;;;;;32.23;40.84;101330.06;1438131;98;21186;-49
2022/08/10 09:43:11;;;;;;;5.47;3.10;;;;;;;32.30;40.77;101333.80;1410496;101;21208;-49
2022/08/10 09:46:07;;;;;;;4.58;2.92;;;;;;;32.38;40.82;101327.95;1414895;101;21126;-53
2022/08/10 09:48:49;;;;;;;3.40;3.10;;;;;;;32.47;41.04;101327.04;1415209;101;21159;-49
2022/08/10 09:51:27;;;;;;;5.00;3.55;;;;;;;32.58;40.31;101327.27;1399312;101;21094;-49
2022/08/10 09:54:25;;;;;;;6.45;3.55;;;;;;;32.62;39.46;101317.85;1394348;101;21599;-49
2022/08/10 09:57:29;;;;;;;7.00;3.70;;;;;;;32.64;38.93;101314.48;1392642;102;21145;-51
2022/08/10 10:00:11;;;;;;;6.40;3.25;;;;;;;32.67;39.27;101310.11;1390512;101;21140;-49
2022/08/10 10:03:18;;;;;;;6.45;3.80;;;;;;;32.71;38.53;101322.25;1403867;101;21066;-55
2022/08/10 10:06:05;;;;;;;3.80;3.50;;;;;;;32.73;38.42;101316.19;1401474;99;21158;-50
2022/08/10 10:08:38;;;;;;;3.85;3.40;;;;;;;32.69;38.42;101310.30;1409061;99;21067;-52
2022/08/10 10:11:41;;;;;;;6.67;3.67;;;;;;;32.66;38.68;101314.67;1402538;99;21118;-50
2022/08/10 10:14:20;;;;;;;4.47;3.67;;;;;;;32.69;38.22;101316.17;1413776;99;21153;-52
2022/08/10 10:17:11;;;;;;;3.33;3.02;;;;;;;32.73;38.62;101317.54;1449428;96;21151;-51
2022/08/10 10:19:58;;;;;;;3.47;3.00;;;;;;;32.80;38.53;101317.24;1502287;94;21132;-52
2022/08/10 10:22:40;;;;;;;7.03;3.60;;;;;;;32.88;38.36;101314.58;1511728;94;21129;-50
2022/08/10 10:25:34;;;;;;;6.37;3.47;;;;;;;32.93;38.25;101312.24;1519565;94;21053;-53
2022/08/10 10:28:33;;;;;;;3.55;2.87;;;;;;;32.96;37.34;101317.78;1459161;97;21148;-54
2022/08/10 10:31:17;;;;;;;3.10;2.85;;;;;;;32.96;37.63;101309.70;1497691;93;21066;-51
2022/08/10 10:34:16;;;;;;;4.15;3.12;;;;;;;32.97;37.34;101303.31;1505343;94;21186;-51
2022/08/10 10:36:44;;;;;;;4.35;3.25;;;;;;;33.01;37.06;101304.20;1469254;97;21577;-49
2022/08/10 10:39:14;;;;;;;3.12;2.83;;;;;;;33.04;37.44;101307.91;1440985;97;21101;-49
2022/08/10 10:41:52;;;;;;;3.62;3.30;;;;;;;33.04;38.10;101307.91;1442650;98;21181;-48
2022/08/10 10:44:53;;;;;;;4.60;3.20;;;;;;;33.03;37.67;101300.84;1417050;100;21136;-53
2022/08/10 10:47:53;;;;;;;4.17;3.40;;;;;;;33.03;37.45;101302.19;1404453;101;21604;-54
2022/08/10 10:50:48;;;;;;;7.22;2.85;;;;;;;33.07;37.21;101300.00;1374722;103;21155;-49
2022/08/10 10:53:38;;;;;;;6.62;3.40;;;;;;;33.12;36.95;101297.13;1379274;103;21253;-49
2022/08/10 10:56:23;;;;;;;5.72;3.25;;;;;;;33.17;37.03;101305.59;1346586;105;21204;-49
2022/08/10 10:59:18;;;;;;;3.40;3.10;;;;;;;33.24;36.75;101303.89;1353317;105;21161;-54
2022/08/10 11:02:18;;;;;;;15.50;3.25;;;;;;;33.33;37.14;101299.36;1345396;105;21294;-51
2022/08/10 11:05:16;;;;;;;4.42;3.20;;;;;;;33.40;36.09;101298.55;1298275;109;21111;-49
2022/08/10 11:08:09;;;;;;;4.95;2.70;;;;;;;33.47;35.91;101303.59;1293768;110;21606;-53
2022/08/10 11:11:00;;;;;;;5.53;2.85;;;;;;;33.51;36.08;101300.11;1329155;106;21149;-50
2022/08/10 11:13:42;;;;;;;4.22;2.98;;;;;;;33.51;35.19;101300.92;1344073;106;21198;-52
2022/08/10 11:16:35;;;;;;;3.50;2.60;;;;;;;33.53;35.53;101298.08;1305525;108;21221;-53
2022/08/10 11:19:30;;;;;;;4.25;2.87;;;;;;;33.55;35.58;101304.16;1281635;111;21745;-52
2022/08/10 11:22:15;;;;;;;5.65;3.12;;;;;;;33.54;35.79;101289.81;1305623;109;21181;-53
2022/08/10 11:25:21;;;;;;;6.33;2.95;;;;;;;33.54;35.81;101286.25;1276202;111;21279;-49
2022/08/10 11:28:17;;;;;;;6.10;3.12;;;;;;;33.56;35.49;101283.73;1270122;111;21231;-53
2022/08/10 11:30:55;;;;;;;5.50;3.10;;;;;;;33.60;35.66;101280.18;1209211;117;21275;-50
2022/08/10 11:33:45;;;;;;;4.53;2.62;;;;;;;33.62;35.22;101278.16;1210685;116;21197;-51
2022/08/10 11:36:41;;;;;;;3.77;3.12;;;;;;;33.67;36.45;101286.60;1225871;114;21243;-52
2022/08/10 11:39:39;;;;;;;6.87;2.58;;;;;;;33.70;36.81;101282.20;1213642;117;21270;-51
2022/08/10 11:42:10;;;;;;;5.58;2.65;;;;;;;33.76;37.29;101284.74;1199272;118;21325;-53
2022/08/10 11:44:53;;;;;;;4.45;2.42;;;;;;;33.78;36.46;101279.48;1168010;121;21385;-52
2022/08/10 11:47:25;;;;;;;2.62;2.42;;;;;;;33.80;36.40;101276.11;1176238;122;21255;-52
2022/08/10 11:50:13;;;;;;;5.87;2.75;;;;;;;33.80;36.27;101279.34;1174620;122;21188;-52
2022/08/10 11:53:06;;;;;;;3.40;2.52;;;;;;;33.80;36.62;101276.64;1173523;122;21339;-52
2022/08/10 11:55:33;;;;;;;3.90;2.55;;;;;;;33.80;36.27;101279.34;1171490;122;21263;-52
2022/08/10 12:01:01;;;;;;;5.25;2.70;;;;;;;33.79;36.99;101266.84;1171120;121;21772;-49
2022/08/10 12:03:30;;;;;;;2.75;2.47;;;;;;;33.82;36.32;101272.73;1172006;120;21226;-53
2022/08/10 12:05:57;;;;;;;5.12;2.50;;;;;;;33.84;35.40;101263.14;1201457;118;21176;-49